sensor_id;sensor_type;location;lat;lon;timestamp;P1;durP1;ratioP1;P2;durP2;ratioP2
52057;SDS011;38063;53.210;6.504;2022-09-24T00:00:47;49.85;;;33.38;;
52057;SDS011;38063;53.210;6.504;2022-09-24T00:03:19;42.03;;;32.90;;
52057;SDS011;38063;53.210;6.504;2022-09-24T00:05:46;46.40;;;32.13;;
52057;SDS011;38063;53.210;6.504;2022-09-24T00:08:13;47.85;;;33.92;;
52057;SDS011;38063;53.210;6.504;2022-09-24T00:10:40;47.67;;;33.88;;
52057;SDS011;38063;53.210;6.504;2022-09-24T00:13:08;46.83;;;34.83;;
52057;SDS011;38063;53.210;6.504;2022-09-24T00:15:43;48.85;;;34.92;;
52057;SDS011;38063;53.210;6.504;2022-09-24T00:18:11;53.00;;;35.53;;
52057;SDS011;38063;53.210;6.504;2022-09-24T00:20:37;46.17;;;34.58;;
52057;SDS011;38063;53.210;6.504;2022-09-24T00:23:04;48.28;;;36.15;;
52057;SDS011;38063;53.210;6.504;2022-09-24T00:25:31;54.42;;;37.55;;
52057;SDS011;38063;53.210;6.504;2022-09-24T00:28:15;51.63;;;38.08;;
52057;SDS011;38063;53.210;6.504;2022-09-24T00:30:42;54.60;;;38.33;;
52057;SDS011;38063;53.210;6.504;2022-09-24T00:33:09;55.78;;;40.08;;
52057;SDS011;38063;53.210;6.504;2022-09-24T00:35:35;58.25;;;41.03;;
52057;SDS011;38063;53.210;6.504;2022-09-24T00:38:02;64.97;;;43.55;;
52057;SDS011;38063;53.210;6.504;2022-09-24T00:40:34;63.05;;;44.40;;
52057;SDS011;38063;53.210;6.504;2022-09-24T00:43:01;62.83;;;43.03;;
52057;SDS011;38063;53.210;6.504;2022-09-24T00:45:44;62.10;;;43.00;;
52057;SDS011;38063;53.210;6.504;2022-09-24T00:48:10;63.20;;;44.35;;
52057;SDS011;38063;53.210;6.504;2022-09-24T00:50:36;65.68;;;44.35;;
52057;SDS011;38063;53.210;6.504;2022-09-24T00:53:02;66.05;;;45.38;;
52057;SDS011;38063;53.210;6.504;2022-09-24T00:55:33;66.10;;;45.50;;
52057;SDS011;38063;53.210;6.504;2022-09-24T00:58:02;66.18;;;45.25;;
52057;SDS011;38063;53.210;6.504;2022-09-24T01:00:30;66.50;;;45.72;;
52057;SDS011;38063;53.210;6.504;2022-09-24T01:03:01;71.70;;;46.22;;
52057;SDS011;38063;53.210;6.504;2022-09-24T01:05:32;67.97;;;47.10;;
52057;SDS011;38063;53.210;6.504;2022-09-24T01:07:59;70.40;;;48.55;;
52057;SDS011;38063;53.210;6.504;2022-09-24T01:11:10;66.97;;;46.38;;
52057;SDS011;38063;53.210;6.504;2022-09-24T01:13:42;66.68;;;47.20;;
52057;SDS011;38063;53.210;6.504;2022-09-24T01:19:11;70.38;;;47.80;;
52057;SDS011;38063;53.210;6.504;2022-09-24T01:22:14;67.45;;;47.42;;
52057;SDS011;38063;53.210;6.504;2022-09-24T01:24:59;71.72;;;49.67;;
52057;SDS011;38063;53.210;6.504;2022-09-24T01:30:09;75.93;;;49.63;;
52057;SDS011;38063;53.210;6.504;2022-09-24T01:32:47;74.05;;;50.47;;
52057;SDS011;38063;53.210;6.504;2022-09-24T01:37:56;76.88;;;52.03;;
52057;SDS011;38063;53.210;6.504;2022-09-24T01:40:26;83.22;;;54.13;;
52057;SDS011;38063;53.210;6.504;2022-09-24T01:42:53;80.90;;;53.22;;
52057;SDS011;38063;53.210;6.504;2022-09-24T01:45:21;77.10;;;51.40;;
52057;SDS011;38063;53.210;6.504;2022-09-24T01:47:46;82.57;;;52.88;;
52057;SDS011;38063;53.210;6.504;2022-09-24T01:50:14;78.93;;;53.95;;
52057;SDS011;38063;53.210;6.504;2022-09-24T01:52:44;83.85;;;53.97;;
52057;SDS011;38063;53.210;6.504;2022-09-24T01:55:26;84.80;;;54.90;;
52057;SDS011;38063;53.210;6.504;2022-09-24T01:58:01;85.22;;;53.53;;
52057;SDS011;38063;53.210;6.504;2022-09-24T02:00:33;73.57;;;51.72;;
52057;SDS011;38063;53.210;6.504;2022-09-24T02:08:20;81.88;;;54.03;;
52057;SDS011;38063;53.210;6.504;2022-09-24T02:10:52;81.35;;;54.85;;
52057;SDS011;38063;53.210;6.504;2022-09-24T02:13:27;89.95;;;58.33;;
52057;SDS011;38063;53.210;6.504;2022-09-24T02:15:59;93.53;;;59.60;;
52057;SDS011;38063;53.210;6.504;2022-09-24T02:18:29;91.65;;;58.50;;
52057;SDS011;38063;53.210;6.504;2022-09-24T02:20:59;80.78;;;53.75;;
52057;SDS011;38063;53.210;6.504;2022-09-24T02:23:28;76.47;;;49.63;;
52057;SDS011;38063;53.210;6.504;2022-09-24T02:25:57;81.80;;;53.53;;
52057;SDS011;38063;53.210;6.504;2022-09-24T02:28:26;86.45;;;56.10;;
52057;SDS011;38063;53.210;6.504;2022-09-24T02:30:58;90.18;;;57.47;;
52057;SDS011;38063;53.210;6.504;2022-09-24T02:33:44;90.65;;;57.50;;
52057;SDS011;38063;53.210;6.504;2022-09-24T02:36:31;90.32;;;56.17;;
52057;SDS011;38063;53.210;6.504;2022-09-24T02:38:57;88.45;;;55.85;;
52057;SDS011;38063;53.210;6.504;2022-09-24T02:41:23;87.47;;;54.83;;
52057;SDS011;38063;53.210;6.504;2022-09-24T02:43:50;81.63;;;51.60;;
52057;SDS011;38063;53.210;6.504;2022-09-24T02:46:16;68.82;;;47.45;;
52057;SDS011;38063;53.210;6.504;2022-09-24T02:48:42;73.90;;;47.08;;
52057;SDS011;38063;53.210;6.504;2022-09-24T02:51:08;63.70;;;42.85;;
52057;SDS011;38063;53.210;6.504;2022-09-24T02:53:33;60.72;;;42.20;;
52057;SDS011;38063;53.210;6.504;2022-09-24T02:55:59;61.55;;;41.38;;
52057;SDS011;38063;53.210;6.504;2022-09-24T02:58:26;63.35;;;42.05;;
52057;SDS011;38063;53.210;6.504;2022-09-24T03:00:52;60.63;;;42.47;;
52057;SDS011;38063;53.210;6.504;2022-09-24T03:03:21;58.33;;;38.58;;
52057;SDS011;38063;53.210;6.504;2022-09-24T03:05:48;55.55;;;39.13;;
52057;SDS011;38063;53.210;6.504;2022-09-24T03:08:17;53.20;;;39.05;;
52057;SDS011;38063;53.210;6.504;2022-09-24T03:10:43;58.60;;;40.80;;
52057;SDS011;38063;53.210;6.504;2022-09-24T03:13:10;51.22;;;36.42;;
52057;SDS011;38063;53.210;6.504;2022-09-24T03:15:36;48.22;;;34.45;;
52057;SDS011;38063;53.210;6.504;2022-09-24T03:18:02;51.35;;;36.80;;
52057;SDS011;38063;53.210;6.504;2022-09-24T03:20:28;56.35;;;38.75;;
52057;SDS011;38063;53.210;6.504;2022-09-24T03:22:53;53.72;;;39.13;;
52057;SDS011;38063;53.210;6.504;2022-09-24T03:25:19;51.50;;;37.80;;
52057;SDS011;38063;53.210;6.504;2022-09-24T03:27:45;50.92;;;37.72;;
52057;SDS011;38063;53.210;6.504;2022-09-24T03:30:11;63.20;;;41.70;;
52057;SDS011;38063;53.210;6.504;2022-09-24T03:32:56;65.13;;;41.50;;
52057;SDS011;38063;53.210;6.504;2022-09-24T03:35:22;49.58;;;33.55;;
52057;SDS011;38063;53.210;6.504;2022-09-24T03:37:48;55.38;;;37.03;;
52057;SDS011;38063;53.210;6.504;2022-09-24T03:40:13;53.80;;;36.85;;
52057;SDS011;38063;53.210;6.504;2022-09-24T03:42:39;49.03;;;36.42;;
52057;SDS011;38063;53.210;6.504;2022-09-24T03:45:05;50.47;;;35.33;;
52057;SDS011;38063;53.210;6.504;2022-09-24T03:47:31;53.47;;;35.40;;
52057;SDS011;38063;53.210;6.504;2022-09-24T03:49:57;50.05;;;34.75;;
52057;SDS011;38063;53.210;6.504;2022-09-24T03:52:23;49.25;;;34.50;;
52057;SDS011;38063;53.210;6.504;2022-09-24T03:54:50;51.17;;;35.63;;
52057;SDS011;38063;53.210;6.504;2022-09-24T03:57:16;46.55;;;32.95;;
52057;SDS011;38063;53.210;6.504;2022-09-24T03:59:42;48.63;;;34.28;;
52057;SDS011;38063;53.210;6.504;2022-09-24T04:02:08;43.63;;;32.03;;
52057;SDS011;38063;53.210;6.504;2022-09-24T04:04:35;43.67;;;32.20;;
52057;SDS011;38063;53.210;6.504;2022-09-24T04:07:00;49.03;;;33.53;;
52057;SDS011;38063;53.210;6.504;2022-09-24T04:09:26;47.65;;;30.83;;
52057;SDS011;38063;53.210;6.504;2022-09-24T04:11:52;45.17;;;30.73;;
52057;SDS011;38063;53.210;6.504;2022-09-24T04:14:18;48.13;;;30.85;;
52057;SDS011;38063;53.210;6.504;2022-09-24T04:16:44;42.28;;;27.58;;
52057;SDS011;38063;53.210;6.504;2022-09-24T04:19:11;38.10;;;25.40;;
52057;SDS011;38063;53.210;6.504;2022-09-24T04:21:37;40.83;;;26.17;;
52057;SDS011;38063;53.210;6.504;2022-09-24T04:24:03;30.17;;;18.48;;
52057;SDS011;38063;53.210;6.504;2022-09-24T04:26:29;25.23;;;14.00;;
52057;SDS011;38063;53.210;6.504;2022-09-24T04:28:55;22.10;;;8.95;;
52057;SDS011;38063;53.210;6.504;2022-09-24T04:31:23;12.20;;;5.75;;
52057;SDS011;38063;53.210;6.504;2022-09-24T04:33:51;14.23;;;3.92;;
52057;SDS011;38063;53.210;6.504;2022-09-24T04:36:17;13.05;;;3.58;;
52057;SDS011;38063;53.210;6.504;2022-09-24T04:38:43;11.90;;;2.55;;
52057;SDS011;38063;53.210;6.504;2022-09-24T04:41:10;11.60;;;2.65;;
52057;SDS011;38063;53.210;6.504;2022-09-24T04:43:36;11.32;;;2.28;;
52057;SDS011;38063;53.210;6.504;2022-09-24T04:46:02;12.23;;;2.30;;
52057;SDS011;38063;53.210;6.504;2022-09-24T04:48:29;17.25;;;2.67;;
52057;SDS011;38063;53.210;6.504;2022-09-24T04:50:55;17.42;;;2.10;;
52057;SDS011;38063;53.210;6.504;2022-09-24T04:53:21;12.50;;;2.90;;
52057;SDS011;38063;53.210;6.504;2022-09-24T04:55:47;10.35;;;2.08;;
52057;SDS011;38063;53.210;6.504;2022-09-24T04:58:13;17.92;;;2.40;;
52057;SDS011;38063;53.210;6.504;2022-09-24T05:00:39;15.68;;;2.28;;
52057;SDS011;38063;53.210;6.504;2022-09-24T05:03:06;15.07;;;2.60;;
52057;SDS011;38063;53.210;6.504;2022-09-24T05:05:32;15.10;;;2.35;;
52057;SDS011;38063;53.210;6.504;2022-09-24T05:07:58;15.60;;;1.92;;
52057;SDS011;38063;53.210;6.504;2022-09-24T05:10:25;17.02;;;2.10;;
52057;SDS011;38063;53.210;6.504;2022-09-24T05:12:52;11.20;;;2.00;;
52057;SDS011;38063;53.210;6.504;2022-09-24T05:15:18;12.10;;;2.33;;
52057;SDS011;38063;53.210;6.504;2022-09-24T05:17:45;15.30;;;1.98;;
52057;SDS011;38063;53.210;6.504;2022-09-24T05:20:12;10.38;;;2.10;;
52057;SDS011;38063;53.210;6.504;2022-09-24T05:22:42;12.07;;;1.75;;
52057;SDS011;38063;53.210;6.504;2022-09-24T05:25:09;9.55;;;1.90;;
52057;SDS011;38063;53.210;6.504;2022-09-24T05:27:35;9.27;;;1.92;;
52057;SDS011;38063;53.210;6.504;2022-09-24T05:30:01;8.98;;;1.63;;
52057;SDS011;38063;53.210;6.504;2022-09-24T05:32:27;8.00;;;1.50;;
52057;SDS011;38063;53.210;6.504;2022-09-24T05:34:53;10.18;;;1.90;;
52057;SDS011;38063;53.210;6.504;2022-09-24T05:37:18;7.45;;;1.77;;
52057;SDS011;38063;53.210;6.504;2022-09-24T05:39:44;9.48;;;2.10;;
52057;SDS011;38063;53.210;6.504;2022-09-24T05:42:10;8.05;;;1.67;;
52057;SDS011;38063;53.210;6.504;2022-09-24T05:44:38;7.28;;;1.88;;
52057;SDS011;38063;53.210;6.504;2022-09-24T05:47:04;8.90;;;1.90;;
52057;SDS011;38063;53.210;6.504;2022-09-24T05:49:30;11.23;;;2.20;;
52057;SDS011;38063;53.210;6.504;2022-09-24T05:51:56;8.25;;;1.70;;
52057;SDS011;38063;53.210;6.504;2022-09-24T05:54:22;13.00;;;2.15;;
52057;SDS011;38063;53.210;6.504;2022-09-24T05:56:47;8.68;;;1.98;;
52057;SDS011;38063;53.210;6.504;2022-09-24T05:59:13;9.27;;;1.80;;
52057;SDS011;38063;53.210;6.504;2022-09-24T06:01:39;9.18;;;1.77;;
52057;SDS011;38063;53.210;6.504;2022-09-24T06:04:05;9.07;;;1.95;;
52057;SDS011;38063;53.210;6.504;2022-09-24T06:06:31;15.82;;;2.22;;
52057;SDS011;38063;53.210;6.504;2022-09-24T06:08:56;9.00;;;2.40;;
52057;SDS011;38063;53.210;6.504;2022-09-24T06:11:22;10.10;;;2.15;;
52057;SDS011;38063;53.210;6.504;2022-09-24T06:13:49;13.38;;;1.95;;
52057;SDS011;38063;53.210;6.504;2022-09-24T06:16:15;13.65;;;2.50;;
52057;SDS011;38063;53.210;6.504;2022-09-24T06:18:41;14.73;;;2.00;;
52057;SDS011;38063;53.210;6.504;2022-09-24T06:21:12;9.80;;;2.10;;
52057;SDS011;38063;53.210;6.504;2022-09-24T06:23:39;15.38;;;2.65;;
52057;SDS011;38063;53.210;6.504;2022-09-24T06:26:07;15.52;;;2.10;;
52057;SDS011;38063;53.210;6.504;2022-09-24T06:28:35;9.55;;;2.60;;
52057;SDS011;38063;53.210;6.504;2022-09-24T06:31:02;10.25;;;1.95;;
52057;SDS011;38063;53.210;6.504;2022-09-24T06:33:28;14.50;;;3.35;;
52057;SDS011;38063;53.210;6.504;2022-09-24T06:35:57;20.27;;;2.45;;
52057;SDS011;38063;53.210;6.504;2022-09-24T06:38:24;12.27;;;2.30;;
52057;SDS011;38063;53.210;6.504;2022-09-24T06:40:50;16.23;;;2.55;;
52057;SDS011;38063;53.210;6.504;2022-09-24T06:43:16;14.77;;;2.25;;
52057;SDS011;38063;53.210;6.504;2022-09-24T06:45:42;14.00;;;2.47;;
52057;SDS011;38063;53.210;6.504;2022-09-24T06:48:09;12.73;;;2.33;;
52057;SDS011;38063;53.210;6.504;2022-09-24T06:50:38;17.70;;;2.30;;
52057;SDS011;38063;53.210;6.504;2022-09-24T06:53:08;14.68;;;2.33;;
52057;SDS011;38063;53.210;6.504;2022-09-24T06:55:35;11.77;;;2.05;;
52057;SDS011;38063;53.210;6.504;2022-09-24T06:58:02;12.05;;;2.55;;
52057;SDS011;38063;53.210;6.504;2022-09-24T07:00:30;15.98;;;2.75;;
52057;SDS011;38063;53.210;6.504;2022-09-24T07:02:55;12.52;;;2.17;;
52057;SDS011;38063;53.210;6.504;2022-09-24T07:05:21;12.57;;;2.30;;
52057;SDS011;38063;53.210;6.504;2022-09-24T07:07:47;20.75;;;3.08;;
52057;SDS011;38063;53.210;6.504;2022-09-24T07:10:12;19.33;;;2.70;;
52057;SDS011;38063;53.210;6.504;2022-09-24T07:12:39;16.30;;;2.35;;
52057;SDS011;38063;53.210;6.504;2022-09-24T07:15:06;14.05;;;2.13;;
52057;SDS011;38063;53.210;6.504;2022-09-24T07:17:32;15.13;;;2.45;;
52057;SDS011;38063;53.210;6.504;2022-09-24T07:19:57;15.25;;;2.42;;
52057;SDS011;38063;53.210;6.504;2022-09-24T07:22:23;13.35;;;2.00;;
52057;SDS011;38063;53.210;6.504;2022-09-24T07:24:49;8.02;;;2.03;;
52057;SDS011;38063;53.210;6.504;2022-09-24T07:27:14;11.15;;;1.83;;
52057;SDS011;38063;53.210;6.504;2022-09-24T07:29:40;11.65;;;2.15;;
52057;SDS011;38063;53.210;6.504;2022-09-24T07:32:06;13.30;;;2.05;;
52057;SDS011;38063;53.210;6.504;2022-09-24T07:34:32;15.95;;;2.85;;
52057;SDS011;38063;53.210;6.504;2022-09-24T07:36:58;15.18;;;2.55;;
52057;SDS011;38063;53.210;6.504;2022-09-24T07:39:23;14.93;;;2.47;;
52057;SDS011;38063;53.210;6.504;2022-09-24T07:41:50;17.48;;;2.47;;
52057;SDS011;38063;53.210;6.504;2022-09-24T07:44:19;14.15;;;2.80;;
52057;SDS011;38063;53.210;6.504;2022-09-24T07:46:47;11.18;;;2.08;;
52057;SDS011;38063;53.210;6.504;2022-09-24T07:49:14;12.57;;;2.03;;
52057;SDS011;38063;53.210;6.504;2022-09-24T07:51:40;16.58;;;3.17;;
52057;SDS011;38063;53.210;6.504;2022-09-24T07:54:05;8.57;;;1.75;;
52057;SDS011;38063;53.210;6.504;2022-09-24T07:56:32;9.90;;;1.77;;
52057;SDS011;38063;53.210;6.504;2022-09-24T07:58:57;10.48;;;1.60;;
52057;SDS011;38063;53.210;6.504;2022-09-24T08:01:23;14.75;;;2.42;;
52057;SDS011;38063;53.210;6.504;2022-09-24T08:03:50;10.80;;;1.95;;
52057;SDS011;38063;53.210;6.504;2022-09-24T08:06:17;9.95;;;1.70;;
52057;SDS011;38063;53.210;6.504;2022-09-24T08:08:43;10.55;;;1.70;;
52057;SDS011;38063;53.210;6.504;2022-09-24T08:11:10;10.23;;;2.03;;
52057;SDS011;38063;53.210;6.504;2022-09-24T08:13:37;17.58;;;2.38;;
52057;SDS011;38063;53.210;6.504;2022-09-24T08:16:04;11.27;;;1.95;;
52057;SDS011;38063;53.210;6.504;2022-09-24T08:18:30;13.27;;;2.28;;
52057;SDS011;38063;53.210;6.504;2022-09-24T08:20:57;12.30;;;2.17;;
52057;SDS011;38063;53.210;6.504;2022-09-24T08:23:27;9.57;;;1.85;;
52057;SDS011;38063;53.210;6.504;2022-09-24T08:25:53;11.93;;;1.98;;
52057;SDS011;38063;53.210;6.504;2022-09-24T08:28:19;9.52;;;1.63;;
52057;SDS011;38063;53.210;6.504;2022-09-24T08:30:45;13.43;;;2.33;;
52057;SDS011;38063;53.210;6.504;2022-09-24T08:33:11;10.30;;;1.75;;
52057;SDS011;38063;53.210;6.504;2022-09-24T08:35:37;8.27;;;2.03;;
52057;SDS011;38063;53.210;6.504;2022-09-24T08:38:06;10.00;;;1.80;;
52057;SDS011;38063;53.210;6.504;2022-09-24T08:40:42;13.95;;;2.33;;
52057;SDS011;38063;53.210;6.504;2022-09-24T08:46:16;10.38;;;2.17;;
52057;SDS011;38063;53.210;6.504;2022-09-24T08:49:06;10.07;;;1.70;;
52057;SDS011;38063;53.210;6.504;2022-09-24T08:51:39;12.65;;;1.90;;
52057;SDS011;38063;53.210;6.504;2022-09-24T08:54:15;10.27;;;2.55;;
52057;SDS011;38063;53.210;6.504;2022-09-24T08:56:43;12.23;;;1.92;;
52057;SDS011;38063;53.210;6.504;2022-09-24T08:59:24;12.15;;;2.13;;
52057;SDS011;38063;53.210;6.504;2022-09-24T09:07:28;10.37;;;1.60;;
52057;SDS011;38063;53.210;6.504;2022-09-24T09:12:46;11.15;;;2.20;;
52057;SDS011;38063;53.210;6.504;2022-09-24T09:15:29;8.25;;;1.50;;
52057;SDS011;38063;53.210;6.504;2022-09-24T09:18:12;7.78;;;1.58;;
52057;SDS011;38063;53.210;6.504;2022-09-24T09:20:52;13.25;;;2.22;;
52057;SDS011;38063;53.210;6.504;2022-09-24T09:23:27;10.35;;;1.55;;
52057;SDS011;38063;53.210;6.504;2022-09-24T09:26:00;5.90;;;1.45;;
52057;SDS011;38063;53.210;6.504;2022-09-24T09:28:26;8.02;;;1.58;;
52057;SDS011;38063;53.210;6.504;2022-09-24T09:41:33;6.78;;;1.65;;
52057;SDS011;38063;53.210;6.504;2022-09-24T09:44:29;4.93;;;0.80;;
52057;SDS011;38063;53.210;6.504;2022-09-24T09:47:05;4.38;;;1.10;;
52057;SDS011;38063;53.210;6.504;2022-09-24T09:49:37;4.32;;;0.80;;
52057;SDS011;38063;53.210;6.504;2022-09-24T09:52:09;5.00;;;0.90;;
52057;SDS011;38063;53.210;6.504;2022-09-24T09:54:39;3.08;;;0.80;;
52057;SDS011;38063;53.210;6.504;2022-09-24T09:57:06;5.00;;;1.13;;
52057;SDS011;38063;53.210;6.504;2022-09-24T09:59:38;6.80;;;1.20;;
52057;SDS011;38063;53.210;6.504;2022-09-24T10:02:08;9.13;;;1.33;;
52057;SDS011;38063;53.210;6.504;2022-09-24T10:04:36;6.28;;;1.10;;
52057;SDS011;38063;53.210;6.504;2022-09-24T10:07:07;3.50;;;1.00;;
52057;SDS011;38063;53.210;6.504;2022-09-24T10:09:35;6.20;;;1.20;;
52057;SDS011;38063;53.210;6.504;2022-09-24T10:12:35;6.13;;;1.23;;
52057;SDS011;38063;53.210;6.504;2022-09-24T10:14:58;4.78;;;1.23;;
52057;SDS011;38063;53.210;6.504;2022-09-24T10:17:38;3.22;;;1.10;;
52057;SDS011;38063;53.210;6.504;2022-09-24T10:20:08;6.18;;;1.00;;
52057;SDS011;38063;53.210;6.504;2022-09-24T10:23:05;6.63;;;1.20;;
52057;SDS011;38063;53.210;6.504;2022-09-24T10:25:39;4.57;;;1.10;;
52057;SDS011;38063;53.210;6.504;2022-09-24T10:28:07;3.85;;;0.70;;
52057;SDS011;38063;53.210;6.504;2022-09-24T10:31:00;5.90;;;1.00;;
52057;SDS011;38063;53.210;6.504;2022-09-24T10:33:36;3.53;;;0.90;;
52057;SDS011;38063;53.210;6.504;2022-09-24T10:36:05;5.75;;;1.08;;
52057;SDS011;38063;53.210;6.504;2022-09-24T10:38:37;5.47;;;1.20;;
52057;SDS011;38063;53.210;6.504;2022-09-24T10:41:12;7.78;;;1.10;;
52057;SDS011;38063;53.210;6.504;2022-09-24T10:44:00;6.38;;;1.15;;
52057;SDS011;38063;53.210;6.504;2022-09-24T11:28:20;6.32;;;1.40;;
52057;SDS011;38063;53.210;6.504;2022-09-24T11:40:01;9.23;;;1.40;;
52057;SDS011;38063;53.210;6.504;2022-09-24T11:43:02;8.10;;;1.48;;
52057;SDS011;38063;53.210;6.504;2022-09-24T11:45:50;4.00;;;1.02;;
52057;SDS011;38063;53.210;6.504;2022-09-24T11:51:29;4.35;;;0.90;;
52057;SDS011;38063;53.210;6.504;2022-09-24T11:56:45;3.10;;;0.93;;
52057;SDS011;38063;53.210;6.504;2022-09-24T11:59:21;5.07;;;1.27;;
52057;SDS011;38063;53.210;6.504;2022-09-24T12:04:59;4.90;;;1.30;;
52057;SDS011;38063;53.210;6.504;2022-09-24T12:07:57;4.07;;;1.25;;
52057;SDS011;38063;53.210;6.504;2022-09-24T12:11:30;5.90;;;1.42;;
52057;SDS011;38063;53.210;6.504;2022-09-24T12:13:48;7.05;;;1.20;;
52057;SDS011;38063;53.210;6.504;2022-09-24T12:16:28;3.10;;;1.02;;
52057;SDS011;38063;53.210;6.504;2022-09-24T12:19:02;3.33;;;0.75;;
52057;SDS011;38063;53.210;6.504;2022-09-24T12:21:41;6.88;;;1.23;;
52057;SDS011;38063;53.210;6.504;2022-09-24T12:24:29;4.15;;;0.88;;
52057;SDS011;38063;53.210;6.504;2022-09-24T12:27:00;5.65;;;1.85;;
52057;SDS011;38063;53.210;6.504;2022-09-24T12:30:14;2.80;;;0.95;;
52057;SDS011;38063;53.210;6.504;2022-09-24T12:38:42;8.15;;;1.08;;
52057;SDS011;38063;53.210;6.504;2022-09-24T12:44:10;6.82;;;1.00;;
52057;SDS011;38063;53.210;6.504;2022-09-24T12:46:40;2.58;;;0.73;;
52057;SDS011;38063;53.210;6.504;2022-09-24T12:49:51;6.10;;;0.93;;
52057;SDS011;38063;53.210;6.504;2022-09-24T12:52:00;6.25;;;1.17;;
52057;SDS011;38063;53.210;6.504;2022-09-24T12:54:39;5.80;;;1.20;;
52057;SDS011;38063;53.210;6.504;2022-09-24T12:59:44;2.60;;;0.65;;
52057;SDS011;38063;53.210;6.504;2022-09-24T13:02:16;5.15;;;0.93;;
52057;SDS011;38063;53.210;6.504;2022-09-24T13:07:41;5.97;;;1.20;;
52057;SDS011;38063;53.210;6.504;2022-09-24T13:10:22;10.35;;;1.20;;
52057;SDS011;38063;53.210;6.504;2022-09-24T13:12:50;7.10;;;1.23;;
52057;SDS011;38063;53.210;6.504;2022-09-24T13:15:21;7.00;;;0.90;;
52057;SDS011;38063;53.210;6.504;2022-09-24T13:18:12;5.22;;;1.10;;
52057;SDS011;38063;53.210;6.504;2022-09-24T13:20:54;6.15;;;0.95;;
52057;SDS011;38063;53.210;6.504;2022-09-24T13:23:45;4.45;;;1.08;;
52057;SDS011;38063;53.210;6.504;2022-09-24T13:26:33;6.30;;;1.20;;
52057;SDS011;38063;53.210;6.504;2022-09-24T13:34:03;3.03;;;0.95;;
52057;SDS011;38063;53.210;6.504;2022-09-24T13:39:31;5.22;;;1.15;;
52057;SDS011;38063;53.210;6.504;2022-09-24T13:44:39;4.93;;;0.75;;
52057;SDS011;38063;53.210;6.504;2022-09-24T13:49:58;6.03;;;1.50;;
52057;SDS011;38063;53.210;6.504;2022-09-24T13:52:35;11.07;;;2.08;;
52057;SDS011;38063;53.210;6.504;2022-09-24T13:55:09;7.95;;;1.45;;
52057;SDS011;38063;53.210;6.504;2022-09-24T13:57:48;8.23;;;1.40;;
52057;SDS011;38063;53.210;6.504;2022-09-24T14:00:18;6.55;;;1.15;;
52057;SDS011;38063;53.210;6.504;2022-09-24T14:03:20;18.33;;;1.95;;
52057;SDS011;38063;53.210;6.504;2022-09-24T14:05:49;7.70;;;1.27;;
52057;SDS011;38063;53.210;6.504;2022-09-24T14:08:16;6.15;;;1.00;;
52057;SDS011;38063;53.210;6.504;2022-09-24T14:10:45;5.20;;;1.30;;
52057;SDS011;38063;53.210;6.504;2022-09-24T14:15:49;6.45;;;1.23;;
52057;SDS011;38063;53.210;6.504;2022-09-24T14:18:14;5.65;;;1.60;;
52057;SDS011;38063;53.210;6.504;2022-09-24T14:20:40;10.30;;;1.83;;
52057;SDS011;38063;53.210;6.504;2022-09-24T14:23:08;9.77;;;1.83;;
52057;SDS011;38063;53.210;6.504;2022-09-24T14:25:42;9.25;;;1.45;;
52057;SDS011;38063;53.210;6.504;2022-09-24T14:28:10;7.22;;;1.42;;
52057;SDS011;38063;53.210;6.504;2022-09-24T14:30:37;7.13;;;1.73;;
52057;SDS011;38063;53.210;6.504;2022-09-24T14:35:43;12.55;;;2.55;;
52057;SDS011;38063;53.210;6.504;2022-09-24T14:38:13;7.40;;;1.42;;
52057;SDS011;38063;53.210;6.504;2022-09-24T14:40:40;7.90;;;1.30;;
52057;SDS011;38063;53.210;6.504;2022-09-24T14:46:00;10.00;;;2.00;;
52057;SDS011;38063;53.210;6.504;2022-09-24T14:48:37;10.63;;;1.77;;
52057;SDS011;38063;53.210;6.504;2022-09-24T14:51:03;8.48;;;1.80;;
52057;SDS011;38063;53.210;6.504;2022-09-24T14:53:30;5.07;;;1.17;;
52057;SDS011;38063;53.210;6.504;2022-09-24T14:56:00;3.83;;;1.02;;
52057;SDS011;38063;53.210;6.504;2022-09-24T14:58:45;6.25;;;1.13;;
52057;SDS011;38063;53.210;6.504;2022-09-24T15:01:12;8.30;;;1.80;;
52057;SDS011;38063;53.210;6.504;2022-09-24T15:03:50;6.55;;;1.63;;
52057;SDS011;38063;53.210;6.504;2022-09-24T15:08:55;7.50;;;1.35;;
52057;SDS011;38063;53.210;6.504;2022-09-24T15:11:27;9.73;;;1.80;;
52057;SDS011;38063;53.210;6.504;2022-09-24T15:16:40;8.57;;;1.52;;
52057;SDS011;38063;53.210;6.504;2022-09-24T15:19:40;6.78;;;1.13;;
52057;SDS011;38063;53.210;6.504;2022-09-24T15:22:00;8.32;;;1.45;;
52057;SDS011;38063;53.210;6.504;2022-09-24T15:24:26;7.35;;;1.45;;
52057;SDS011;38063;53.210;6.504;2022-09-24T15:27:00;7.93;;;2.30;;
52057;SDS011;38063;53.210;6.504;2022-09-24T15:29:46;13.38;;;2.05;;
52057;SDS011;38063;53.210;6.504;2022-09-24T15:32:18;12.25;;;1.88;;
52057;SDS011;38063;53.210;6.504;2022-09-24T15:34:45;6.45;;;1.83;;
52057;SDS011;38063;53.210;6.504;2022-09-24T15:37:12;6.70;;;1.70;;
52057;SDS011;38063;53.210;6.504;2022-09-24T15:39:40;9.65;;;1.85;;
52057;SDS011;38063;53.210;6.504;2022-09-24T15:42:13;8.98;;;1.70;;
52057;SDS011;38063;53.210;6.504;2022-09-24T15:44:45;8.15;;;2.05;;
52057;SDS011;38063;53.210;6.504;2022-09-24T15:47:12;9.90;;;2.15;;
52057;SDS011;38063;53.210;6.504;2022-09-24T15:49:38;11.88;;;2.38;;
52057;SDS011;38063;53.210;6.504;2022-09-24T15:52:14;12.25;;;2.05;;
52057;SDS011;38063;53.210;6.504;2022-09-24T15:57:20;9.90;;;1.83;;
52057;SDS011;38063;53.210;6.504;2022-09-24T15:59:47;10.98;;;2.08;;
52057;SDS011;38063;53.210;6.504;2022-09-24T16:02:17;5.57;;;1.90;;
52057;SDS011;38063;53.210;6.504;2022-09-24T16:04:48;10.48;;;2.50;;
52057;SDS011;38063;53.210;6.504;2022-09-24T16:07:14;7.45;;;1.77;;
52057;SDS011;38063;53.210;6.504;2022-09-24T16:09:41;7.72;;;1.70;;
52057;SDS011;38063;53.210;6.504;2022-09-24T16:12:06;11.07;;;1.77;;
52057;SDS011;38063;53.210;6.504;2022-09-24T16:14:33;9.10;;;1.85;;
52057;SDS011;38063;53.210;6.504;2022-09-24T16:16:59;6.78;;;1.52;;
52057;SDS011;38063;53.210;6.504;2022-09-24T16:19:25;10.93;;;2.33;;
52057;SDS011;38063;53.210;6.504;2022-09-24T16:21:50;6.32;;;1.65;;
52057;SDS011;38063;53.210;6.504;2022-09-24T16:24:16;9.82;;;1.80;;
52057;SDS011;38063;53.210;6.504;2022-09-24T16:26:42;7.65;;;1.27;;
52057;SDS011;38063;53.210;6.504;2022-09-24T16:29:08;4.50;;;1.20;;
52057;SDS011;38063;53.210;6.504;2022-09-24T16:31:36;7.15;;;1.33;;
52057;SDS011;38063;53.210;6.504;2022-09-24T16:34:02;8.25;;;1.50;;
52057;SDS011;38063;53.210;6.504;2022-09-24T16:36:28;6.55;;;1.23;;
52057;SDS011;38063;53.210;6.504;2022-09-24T16:38:53;3.72;;;1.00;;
52057;SDS011;38063;53.210;6.504;2022-09-24T16:41:20;12.98;;;1.42;;
52057;SDS011;38063;53.210;6.504;2022-09-24T16:43:46;6.78;;;1.23;;
52057;SDS011;38063;53.210;6.504;2022-09-24T16:46:12;7.65;;;1.55;;
52057;SDS011;38063;53.210;6.504;2022-09-24T16:48:37;6.80;;;1.08;;
52057;SDS011;38063;53.210;6.504;2022-09-24T16:51:07;10.15;;;1.10;;
52057;SDS011;38063;53.210;6.504;2022-09-24T16:53:34;11.00;;;1.30;;
52057;SDS011;38063;53.210;6.504;2022-09-24T16:56:04;8.00;;;1.17;;
52057;SDS011;38063;53.210;6.504;2022-09-24T16:58:31;7.03;;;1.00;;
52057;SDS011;38063;53.210;6.504;2022-09-24T17:00:57;6.63;;;1.40;;
52057;SDS011;38063;53.210;6.504;2022-09-24T17:03:23;8.80;;;1.40;;
52057;SDS011;38063;53.210;6.504;2022-09-24T17:05:48;8.82;;;1.30;;
52057;SDS011;38063;53.210;6.504;2022-09-24T17:08:14;10.77;;;1.55;;
52057;SDS011;38063;53.210;6.504;2022-09-24T17:10:47;10.25;;;2.05;;
52057;SDS011;38063;53.210;6.504;2022-09-24T17:13:16;7.93;;;1.50;;